sensor_id;sensor_type;location;lat;lon;timestamp;temperature;humidity
13320;DHT22;59599;47.608;12.190;2023-10-13T04:01:47;14.00;99.90
13320;DHT22;59599;47.608;12.190;2023-10-13T04:04:16;13.90;99.90
13320;DHT22;59599;47.608;12.190;2023-10-13T04:06:55;14.00;99.90
13320;DHT22;59599;47.608;12.190;2023-10-13T04:09:40;14.00;99.90
13320;DHT22;59599;47.608;12.190;2023-10-13T04:12:06;14.00;99.90
13320;DHT22;59599;47.608;12.190;2023-10-13T04:14:42;14.00;99.90
13320;DHT22;59599;47.608;12.190;2023-10-13T04:17:24;14.10;99.90
13320;DHT22;59599;47.608;12.190;2023-10-13T04:19:54;14.00;99.90
13320;DHT22;59599;47.608;12.190;2023-10-13T04:22:37;13.80;99.90
13320;DHT22;59599;47.608;12.190;2023-10-13T04:25:19;13.90;99.90
13320;DHT22;59599;47.608;12.190;2023-10-13T04:28:08;13.70;99.90
13320;DHT22;59599;47.608;12.190;2023-10-13T04:33:21;13.50;99.90
13320;DHT22;59599;47.608;12.190;2023-10-13T04:36:13;13.60;99.90
13320;DHT22;59599;47.608;12.190;2023-10-13T04:38:40;13.60;99.90
13320;DHT22;59599;47.608;12.190;2023-10-13T04:41:25;13.60;99.90
13320;DHT22;59599;47.608;12.190;2023-10-13T04:43:58;13.60;99.90
13320;DHT22;59599;47.608;12.190;2023-10-13T04:46:30;13.60;99.90
13320;DHT22;59599;47.608;12.190;2023-10-13T04:49:20;13.50;99.90
13320;DHT22;59599;47.608;12.190;2023-10-13T04:55:01;13.60;99.90
13320;DHT22;59599;47.608;12.190;2023-10-13T04:57:43;13.60;99.90
13320;DHT22;59599;47.608;12.190;2023-10-13T05:00:11;13.50;99.90
13320;DHT22;59599;47.608;12.190;2023-10-13T05:02:38;13.60;99.90
13320;DHT22;59599;47.608;12.190;2023-10-13T05:05:11;13.70;99.90
13320;DHT22;59599;47.608;12.190;2023-10-13T05:07:44;13.60;99.90
13320;DHT22;59599;47.608;12.190;2023-10-13T05:10:29;13.60;99.90
13320;DHT22;59599;47.608;12.190;2023-10-13T05:13:14;13.40;99.90
13320;DHT22;59599;47.608;12.190;2023-10-13T05:24:11;13.40;99.90
13320;DHT22;59599;47.608;12.190;2023-10-13T05:29:43;13.50;99.90
13320;DHT22;59599;47.608;12.190;2023-10-13T05:35:13;13.40;99.90
13320;DHT22;59599;47.608;12.190;2023-10-13T05:37:58;13.40;99.90
13320;DHT22;59599;47.608;12.190;2023-10-13T05:40:58;13.40;99.90
13320;DHT22;59599;47.608;12.190;2023-10-13T05:43:42;13.40;99.90
13320;DHT22;59599;47.608;12.190;2023-10-13T05:46:27;13.50;99.90
13320;DHT22;59599;47.608;12.190;2023-10-13T05:48:54;13.40;99.90
13320;DHT22;59599;47.608;12.190;2023-10-13T05:51:26;13.30;99.90
13320;DHT22;59599;47.608;12.190;2023-10-13T05:54:05;13.20;99.90
13320;DHT22;59599;47.608;12.190;2023-10-13T05:56:50;13.20;99.90
13320;DHT22;59599;47.608;12.190;2023-10-13T05:59:36;13.10;99.90
13320;DHT22;59599;47.608;12.190;2023-10-13T06:02:22;13.10;99.90
13320;DHT22;59599;47.608;12.190;2023-10-13T06:05:11;13.20;99.90
13320;DHT22;59599;47.608;12.190;2023-10-13T06:08:09;13.10;99.90
13320;DHT22;59599;47.608;12.190;2023-10-13T06:11:03;13.20;99.90
13320;DHT22;59599;47.608;12.190;2023-10-13T06:16:33;13.20;99.90
13320;DHT22;59599;47.608;12.190;2023-10-13T06:22:01;13.10;99.90
13320;DHT22;59599;47.608;12.190;2023-10-13T06:24:45;13.00;99.90
13320;DHT22;59599;47.608;12.190;2023-10-13T06:27:30;13.10;99.90
13320;DHT22;59599;47.608;12.190;2023-10-13T06:32:40;13.20;99.90
13320;DHT22;59599;47.608;12.190;2023-10-13T06:35:06;13.00;99.90
13320;DHT22;59599;47.608;12.190;2023-10-13T06:40:11;13.00;99.90
13320;DHT22;59599;47.608;12.190;2023-10-13T06:42:55;12.80;99.90
13320;DHT22;59599;47.608;12.190;2023-10-13T06:50:30;13.10;99.90
13320;DHT22;59599;47.608;12.190;2023-10-13T06:53:04;13.10;99.90
13320;DHT22;59599;47.608;12.190;2023-10-13T06:55:30;13.10;99.90
13320;DHT22;59599;47.608;12.190;2023-10-13T06:58:00;13.00;99.90
13320;DHT22;59599;47.608;12.190;2023-10-13T07:00:29;13.00;99.90
13320;DHT22;59599;47.608;12.190;2023-10-13T07:02:55;13.00;99.90
13320;DHT22;59599;47.608;12.190;2023-10-13T07:05:38;13.20;99.90
13320;DHT22;59599;47.608;12.190;2023-10-13T07:08:08;13.30;99.90
13320;DHT22;59599;47.608;12.190;2023-10-13T07:10:34;13.40;99.90
13320;DHT22;59599;47.608;12.190;2023-10-13T07:13:18;13.50;99.90
13320;DHT22;59599;47.608;12.190;2023-10-13T07:15:45;13.60;99.90
13320;DHT22;59599;47.608;12.190;2023-10-13T07:18:14;13.80;99.90
13320;DHT22;59599;47.608;12.190;2023-10-13T07:20:42;13.90;99.90
13320;DHT22;59599;47.608;12.190;2023-10-13T07:23:14;13.90;99.90
13320;DHT22;59599;47.608;12.190;2023-10-13T07:25:53;14.00;99.90
13320;DHT22;59599;47.608;12.190;2023-10-13T07:28:20;14.10;99.90
13320;DHT22;59599;47.608;12.190;2023-10-13T07:30:46;14.10;99.90
13320;DHT22;59599;47.608;12.190;2023-10-13T07:33:34;14.20;99.90
13320;DHT22;59599;47.608;12.190;2023-10-13T07:36:09;14.20;99.90
13320;DHT22;59599;47.608;12.190;2023-10-13T07:41:45;14.40;99.90
13320;DHT22;59599;47.608;12.190;2023-10-13T07:44:18;14.60;99.90
13320;DHT22;59599;47.608;12.190;2023-10-13T07:46:47;14.70;99.90
13320;DHT22;59599;47.608;12.190;2023-10-13T07:56:52;15.40;99.90
13320;DHT22;59599;47.608;12.190;2023-10-13T08:01:48;15.80;99.90
13320;DHT22;59599;47.608;12.190;2023-10-13T08:04:32;16.00;99.90
13320;DHT22;59599;47.608;12.190;2023-10-13T08:07:01;16.10;99.90
13320;DHT22;59599;47.608;12.190;2023-10-13T08:09:41;16.30;99.90
13320;DHT22;59599;47.608;12.190;2023-10-13T08:14:37;16.50;99.90
13320;DHT22;59599;47.608;12.190;2023-10-13T08:17:06;16.60;99.90
13320;DHT22;59599;47.608;12.190;2023-10-13T08:19:36;16.80;99.90
13320;DHT22;59599;47.608;12.190;2023-10-13T08:22:11;16.90;99.90
13320;DHT22;59599;47.608;12.190;2023-10-13T08:24:51;17.00;99.90
13320;DHT22;59599;47.608;12.190;2023-10-13T08:27:20;17.20;99.90
13320;DHT22;59599;47.608;12.190;2023-10-13T08:30:14;17.30;99.90
13320;DHT22;59599;47.608;12.190;2023-10-13T08:32:51;17.50;99.90
13320;DHT22;59599;47.608;12.190;2023-10-13T08:35:21;17.50;99.90
13320;DHT22;59599;47.608;12.190;2023-10-13T08:38:00;17.60;99.90
13320;DHT22;59599;47.608;12.190;2023-10-13T08:40:29;17.70;99.90
13320;DHT22;59599;47.608;12.190;2023-10-13T08:43:14;17.70;99.90
13320;DHT22;59599;47.608;12.190;2023-10-13T08:45:41;17.80;99.90
13320;DHT22;59599;47.608;12.190;2023-10-13T08:48:11;17.90;99.90
13320;DHT22;59599;47.608;12.190;2023-10-13T08:53:27;18.10;99.90
13320;DHT22;59599;47.608;12.190;2023-10-13T08:55:57;18.30;99.90
13320;DHT22;59599;47.608;12.190;2023-10-13T08:58:39;18.40;99.90
13320;DHT22;59599;47.608;12.190;2023-10-13T09:01:23;18.50;99.90
13320;DHT22;59599;47.608;12.190;2023-10-13T09:04:15;18.70;99.90
13320;DHT22;59599;47.608;12.190;2023-10-13T09:09:28;19.00;99.90
13320;DHT22;59599;47.608;12.190;2023-10-13T09:12:17;19.10;99.90
13320;DHT22;59599;47.608;12.190;2023-10-13T09:14:56;19.20;99.90
13320;DHT22;59599;47.608;12.190;2023-10-13T09:17:31;19.10;99.90
13320;DHT22;59599;47.608;12.190;2023-10-13T09:22:45;19.20;99.90
13320;DHT22;59599;47.608;12.190;2023-10-13T09:25:22;19.20;99.90
13320;DHT22;59599;47.608;12.190;2023-10-13T09:27:49;19.40;99.90
13320;DHT22;59599;47.608;12.190;2023-10-13T09:30:18;19.40;99.90
13320;DHT22;59599;47.608;12.190;2023-10-13T09:33:09;19.70;99.90
13320;DHT22;59599;47.608;12.190;2023-10-13T09:35:35;19.90;99.90
13320;DHT22;59599;47.608;12.190;2023-10-13T09:38:02;20.00;99.90
13320;DHT22;59599;47.608;12.190;2023-10-13T09:40:29;20.10;99.90
13320;DHT22;59599;47.608;12.190;2023-10-13T09:42:58;20.10;99.90
13320;DHT22;59599;47.608;12.190;2023-10-13T09:45:31;20.20;99.90
13320;DHT22;59599;47.608;12.190;2023-10-13T09:48:10;20.20;99.90
13320;DHT22;59599;47.608;12.190;2023-10-13T09:50:45;20.20;99.90
13320;DHT22;59599;47.608;12.190;2023-10-13T09:55:46;20.50;99.90
13320;DHT22;59599;47.608;12.190;2023-10-13T09:58:14;20.60;99.90
13320;DHT22;59599;47.608;12.190;2023-10-13T10:00:56;20.80;99.90
13320;DHT22;59599;47.608;12.190;2023-10-13T10:06:02;19.40;99.90
13320;DHT22;59599;47.608;12.190;2023-10-13T10:08:35;21.10;99.90
13320;DHT22;59599;47.608;12.190;2023-10-13T10:11:17;21.20;99.90
13320;DHT22;59599;47.608;12.190;2023-10-13T10:13:52;21.30;99.90
13320;DHT22;59599;47.608;12.190;2023-10-13T10:17:12;21.30;99.90
13320;DHT22;59599;47.608;12.190;2023-10-13T10:21:40;21.40;99.90
13320;DHT22;59599;47.608;12.190;2023-10-13T10:24:14;21.40;99.90
13320;DHT22;59599;47.608;12.190;2023-10-13T10:26:53;21.60;99.90
13320;DHT22;59599;47.608;12.190;2023-10-13T10:31:48;21.70;99.90
13320;DHT22;59599;47.608;12.190;2023-10-13T10:34:30;21.80;99.90
13320;DHT22;59599;47.608;12.190;2023-10-13T10:37:04;21.90;99.90
13320;DHT22;59599;47.608;12.190;2023-10-13T10:45:10;22.10;99.90
13320;DHT22;59599;47.608;12.190;2023-10-13T10:50:05;22.40;99.90
13320;DHT22;59599;47.608;12.190;2023-10-13T10:57:44;22.60;99.90
13320;DHT22;59599;47.608;12.190;2023-10-13T11:00:20;22.70;99.90
13320;DHT22;59599;47.608;12.190;2023-10-13T11:03:03;22.70;99.90
13320;DHT22;59599;47.608;12.190;2023-10-13T11:12:59;23.10;99.90
13320;DHT22;59599;47.608;12.190;2023-10-13T11:15:44;23.10;99.90
13320;DHT22;59599;47.608;12.190;2023-10-13T11:18:11;23.10;99.90
13320;DHT22;59599;47.608;12.190;2023-10-13T11:21:15;23.30;99.90
13320;DHT22;59599;47.608;12.190;2023-10-13T11:23:43;23.50;99.90
13320;DHT22;59599;47.608;12.190;2023-10-13T11:26:17;23.70;99.90
13320;DHT22;59599;47.608;12.190;2023-10-13T11:28:50;23.70;99.90
13320;DHT22;59599;47.608;12.190;2023-10-13T11:43:50;24.30;99.90
13320;DHT22;59599;47.608;12.190;2023-10-13T11:49:06;24.50;99.90
13320;DHT22;59599;47.608;12.190;2023-10-13T11:51:51;24.70;99.90
13320;DHT22;59599;47.608;12.190;2023-10-13T11:54:22;24.70;99.90
13320;DHT22;59599;47.608;12.190;2023-10-13T11:56:49;25.00;99.90
13320;DHT22;59599;47.608;12.190;2023-10-13T11:59:16;25.10;99.90
13320;DHT22;59599;47.608;12.190;2023-10-13T12:01:50;25.20;99.90
13320;DHT22;59599;47.608;12.190;2023-10-13T12:15:25;25.90;99.90
13320;DHT22;59599;47.608;12.190;2023-10-13T12:17:59;26.00;99.90
13320;DHT22;59599;47.608;12.190;2023-10-13T12:20:26;26.00;99.90
13320;DHT22;59599;47.608;12.190;2023-10-13T12:22:59;26.10;99.90
13320;DHT22;59599;47.608;12.190;2023-10-13T12:25:38;26.40;99.90
13320;DHT22;59599;47.608;12.190;2023-10-13T12:59:49;28.70;99.90
13320;DHT22;59599;47.608;12.190;2023-10-13T13:04:41;29.20;99.90
13320;DHT22;59599;47.608;12.190;2023-10-13T13:12:05;29.80;97.90
13320;DHT22;59599;47.608;12.190;2023-10-13T13:19:36;30.70;96.10
13320;DHT22;59599;47.608;12.190;2023-10-13T13:22:08;31.00;96.40
13320;DHT22;59599;47.608;12.190;2023-10-13T13:24:44;31.20;94.40
13320;DHT22;59599;47.608;12.190;2023-10-13T13:27:14;31.40;93.90
13320;DHT22;59599;47.608;12.190;2023-10-13T13:29:48;31.50;92.90
13320;DHT22;59599;47.608;12.190;2023-10-13T13:42:44;32.10;90.30
13320;DHT22;59599;47.608;12.190;2023-10-13T13:45:17;31.80;91.60
13320;DHT22;59599;47.608;12.190;2023-10-13T13:57:43;33.20;88.60
13320;DHT22;59599;47.608;12.190;2023-10-13T14:00:11;33.20;86.00
13320;DHT22;59599;47.608;12.190;2023-10-13T14:05:15;33.10;86.10
13320;DHT22;59599;47.608;12.190;2023-10-13T14:07:44;33.10;87.70
13320;DHT22;59599;47.608;12.190;2023-10-13T14:10:18;33.10;85.10
13320;DHT22;59599;47.608;12.190;2023-10-13T14:12:59;32.80;85.60
13320;DHT22;59599;47.608;12.190;2023-10-13T14:16:08;32.80;86.60
13320;DHT22;59599;47.608;12.190;2023-10-13T14:18:53;32.30;86.50
13320;DHT22;59599;47.608;12.190;2023-10-13T14:21:22;32.10;87.80
13320;DHT22;59599;47.608;12.190;2023-10-13T14:23:51;32.00;88.20
13320;DHT22;59599;47.608;12.190;2023-10-13T14:26:22;31.80;84.60
13320;DHT22;59599;47.608;12.190;2023-10-13T14:28:55;31.70;85.20
13320;DHT22;59599;47.608;12.190;2023-10-13T14:31:44;31.40;90.30
13320;DHT22;59599;47.608;12.190;2023-10-13T14:34:45;31.20;89.00
13320;DHT22;59599;47.608;12.190;2023-10-13T14:39:58;30.80;91.70
13320;DHT22;59599;47.608;12.190;2023-10-13T14:42:26;30.70;91.80
13320;DHT22;59599;47.608;12.190;2023-10-13T14:47:24;30.60;93.10
13320;DHT22;59599;47.608;12.190;2023-10-13T14:49:57;30.30;93.90
13320;DHT22;59599;47.608;12.190;2023-10-13T14:59:55;30.00;93.90
13320;DHT22;59599;47.608;12.190;2023-10-13T15:07:16;30.20;92.80
13320;DHT22;59599;47.608;12.190;2023-10-13T15:14:40;31.50;92.50
13320;DHT22;59599;47.608;12.190;2023-10-13T15:22:05;33.70;89.60
13320;DHT22;59599;47.608;12.190;2023-10-13T15:34:28;34.80;84.80
13320;DHT22;59599;47.608;12.190;2023-10-13T15:36:55;33.40;86.80
13320;DHT22;59599;47.608;12.190;2023-10-13T15:39:22;31.90;90.00
13320;DHT22;59599;47.608;12.190;2023-10-13T15:46:56;28.60;94.10
13320;DHT22;59599;47.608;12.190;2023-10-13T15:49:22;27.60;96.10
13320;DHT22;59599;47.608;12.190;2023-10-13T15:51:48;27.00;97.30
13320;DHT22;59599;47.608;12.190;2023-10-13T15:54:15;26.40;97.80
13320;DHT22;59599;47.608;12.190;2023-10-13T15:56:48;25.80;98.90
13320;DHT22;59599;47.608;12.190;2023-10-13T15:59:15;25.30;99.90
13320;DHT22;59599;47.608;12.190;2023-10-13T16:04:07;24.70;99.90
13320;DHT22;59599;47.608;12.190;2023-10-13T16:06:40;24.30;99.90
13320;DHT22;59599;47.608;12.190;2023-10-13T16:11:40;23.60;99.90
13320;DHT22;59599;47.608;12.190;2023-10-13T16:21:32;22.80;99.90
13320;DHT22;59599;47.608;12.190;2023-10-13T16:46:13;21.00;99.90
13320;DHT22;59599;47.608;12.190;2023-10-13T16:48:41;20.90;99.90
13320;DHT22;59599;47.608;12.190;2023-10-13T16:51:07;20.70;99.90
13320;DHT22;59599;47.608;12.190;2023-10-13T16:53:39;20.50;99.90
13320;DHT22;59599;47.608;12.190;2023-10-13T16:56:07;20.40;99.90
13320;DHT22;59599;47.608;12.190;2023-10-13T17:01:00;20.30;99.90
13320;DHT22;59599;47.608;12.190;2023-10-13T17:03:30;20.20;99.90
13320;DHT22;59599;47.608;12.190;2023-10-13T17:08:23;20.10;99.90
13320;DHT22;59599;47.608;12.190;2023-10-13T17:10:50;20.10;99.90
13320;DHT22;59599;47.608;12.190;2023-10-13T17:13:16;20.00;99.90
13320;DHT22;59599;47.608;12.190;2023-10-13T17:18:16;19.70;99.90
13320;DHT22;59599;47.608;12.190;2023-10-13T17:25:39;19.70;99.90
13320;DHT22;59599;47.608;12.190;2023-10-13T17:30:41;19.40;99.90
13320;DHT22;59599;47.608;12.190;2023-10-13T17:33:07;20.10;99.90
13320;DHT22;59599;47.608;12.190;2023-10-13T17:35:40;19.10;99.90
13320;DHT22;59599;47.608;12.190;2023-10-13T17:38:06;19.00;99.90
13320;DHT22;59599;47.608;12.190;2023-10-13T17:40:34;19.00;99.90
13320;DHT22;59599;47.608;12.190;2023-10-13T17:43:00;19.00;99.90
13320;DHT22;59599;47.608;12.190;2023-10-13T18:02:41;18.20;99.90
13320;DHT22;59599;47.608;12.190;2023-10-13T18:05:12;18.30;99.90
13320;DHT22;59599;47.608;12.190;2023-10-13T18:07:41;18.30;99.90
13320;DHT22;59599;47.608;12.190;2023-10-13T18:10:08;18.30;99.90
13320;DHT22;59599;47.608;12.190;2023-10-13T18:22:29;18.00;99.90
13320;DHT22;59599;47.608;12.190;2023-10-13T18:29:49;17.70;99.90
13320;DHT22;59599;47.608;12.190;2023-10-13T18:34:46;17.60;99.90
13320;DHT22;59599;47.608;12.190;2023-10-13T18:42:06;17.70;99.90
13320;DHT22;59599;47.608;12.190;2023-10-13T18:44:34;17.70;99.90
13320;DHT22;59599;47.608;12.190;2023-10-13T18:56:48;17.40;99.90
13320;DHT22;59599;47.608;12.190;2023-10-13T18:59:19;17.20;99.90
13320;DHT22;59599;47.608;12.190;2023-10-13T19:04:14;16.90;99.90
13320;DHT22;59599;47.608;12.190;2023-10-13T19:06:40;16.90;99.90
13320;DHT22;59599;47.608;12.190;2023-10-13T19:09:07;16.90;99.90
13320;DHT22;59599;47.608;12.190;2023-10-13T19:11:38;16.80;99.90
13320;DHT22;59599;47.608;12.190;2023-10-13T19:14:06;16.70;99.90
13320;DHT22;59599;47.608;12.190;2023-10-13T19:16:41;16.60;99.90
13320;DHT22;59599;47.608;12.190;2023-10-13T19:28:57;16.80;99.90
13320;DHT22;59599;47.608;12.190;2023-10-13T19:31:24;17.00;99.90
13320;DHT22;59599;47.608;12.190;2023-10-13T19:33:54;17.00;99.90
13320;DHT22;59599;47.608;12.190;2023-10-13T19:38:53;16.80;99.90
13320;DHT22;59599;47.608;12.190;2023-10-13T19:41:23;16.70;99.90
13320;DHT22;59599;47.608;12.190;2023-10-13T19:43:52;16.50;99.90
13320;DHT22;59599;47.608;12.190;2023-10-13T19:53:41;16.20;99.90
13320;DHT22;59599;47.608;12.190;2023-10-13T19:56:14;16.20;99.90
13320;DHT22;59599;47.608;12.190;2023-10-13T20:01:12;15.90;99.90
13320;DHT22;59599;47.608;12.190;2023-10-13T20:03:44;15.80;99.90
13320;DHT22;59599;47.608;12.190;2023-10-13T20:06:10;15.80;99.90
13320;DHT22;59599;47.608;12.190;2023-10-13T20:16:01;15.80;99.90
13320;DHT22;59599;47.608;12.190;2023-10-13T20:21:00;16.00;99.90
13320;DHT22;59599;47.608;12.190;2023-10-13T20:28:20;16.00;99.90
13320;DHT22;59599;47.608;12.190;2023-10-13T20:33:13;15.30;99.90
13320;DHT22;59599;47.608;12.190;2023-10-13T20:35:48;15.10;99.90
13320;DHT22;59599;47.608;12.190;2023-10-13T20:48:04;15.50;99.90
13320;DHT22;59599;47.608;12.190;2023-10-13T21:05:15;15.30;99.90
13320;DHT22;59599;47.608;12.190;2023-10-13T21:10:07;14.90;99.90
13320;DHT22;59599;47.608;12.190;2023-10-13T21:42:11;15.00;99.90
